Brockway, Montana
Current Conditions -  °F | °C
As of 9:35 PM on Monday 20 Oct 2014 (Local Time) from KGDV Reporting Station
Clear Clear  
Wind Chill: 55°   Ceiling: Unl
Heat Index: 55°   Visibility: 10mi
Dew Point: 41°   Wind: 7mph
Humidity: 58%   Direction: 200°SSW
Pressure: 29.83"   Gusts: NA
Location:  47.3°N, 105.77°W
Report Text: KGDV 210335Z AUTO 20006KT 10SM CLR 13/05 A2983 RMK AO1
Loading
Personal Weather Stations






























Interactive Weather Map New forecast layout! Learn more

10-Day Weather Forecast

Advertisements
Track Severe Weather on mobile